createdAt,value
2018-07-25T00:02:26.845Z,6.57
2018-07-25T00:05:29.285Z,7.73
2018-07-25T00:09:34.894Z,11.03
2018-07-25T00:12:40.200Z,7.93
2018-07-25T00:15:42.634Z,6.63
2018-07-25T00:18:45.102Z,10.57
2018-07-25T00:21:48.696Z,6.67
2018-07-25T00:24:55.589Z,7.03
2018-07-25T00:27:58.287Z,10.23
2018-07-25T00:31:02.932Z,8.80
2018-07-25T00:34:05.310Z,11.97
2018-07-25T00:44:41.808Z,7.03
2018-07-25T00:47:44.308Z,7.63
2018-07-25T00:50:46.810Z,8.47
2018-07-25T00:53:49.321Z,9.13
2018-07-25T00:56:51.689Z,8.83
2018-07-25T00:59:54.034Z,7.73
2018-07-25T01:02:56.419Z,8.00
2018-07-25T01:05:58.794Z,8.87
2018-07-25T01:09:01.183Z,7.73
2018-07-25T01:12:03.565Z,9.93
2018-07-25T01:15:06.967Z,7.73
2018-07-25T01:18:09.352Z,7.47
2018-07-25T01:21:11.901Z,12.50
2018-07-25T01:24:14.248Z,11.03
2018-07-25T01:27:16.685Z,9.10
2018-07-25T01:30:19.391Z,7.13
2018-07-25T01:33:21.785Z,11.57
2018-07-25T01:36:24.133Z,7.80
2018-07-25T01:39:26.555Z,12.30
2018-07-25T01:42:28.917Z,8.60
2018-07-25T01:45:31.426Z,7.97
2018-07-25T01:48:33.774Z,8.13
2018-07-25T01:51:36.210Z,7.13
2018-07-25T01:54:38.571Z,8.17
2018-07-25T01:57:40.967Z,9.87
2018-07-25T02:00:45.969Z,8.27
2018-07-25T02:03:48.427Z,8.63
2018-07-25T02:06:50.890Z,10.90
2018-07-25T02:09:53.773Z,8.20
2018-07-25T02:12:56.123Z,8.53
2018-07-25T02:15:58.692Z,8.03
2018-07-25T02:19:01.308Z,8.30
2018-07-25T02:22:03.620Z,10.27
2018-07-25T02:25:06.031Z,8.97
2018-07-25T02:28:08.439Z,7.87
2018-07-25T02:31:10.807Z,7.43
2018-07-25T02:34:19.183Z,7.40
2018-07-25T02:37:21.830Z,7.87
2018-07-25T02:40:24.220Z,7.63
2018-07-25T02:43:26.655Z,7.97
2018-07-25T02:46:29.106Z,7.77
2018-07-25T02:49:31.670Z,7.27
2018-07-25T02:52:34.123Z,7.60
2018-07-25T02:55:36.670Z,7.20
2018-07-25T02:58:39.044Z,7.90
2018-07-25T03:01:41.434Z,11.63
2018-07-25T03:04:43.694Z,7.43
2018-07-25T03:07:46.082Z,7.73
2018-07-25T03:10:53.855Z,7.33
2018-07-25T03:13:56.299Z,7.57
2018-07-25T03:16:58.814Z,8.93
2018-07-25T03:20:01.191Z,11.03
2018-07-25T03:23:04.261Z,14.30
2018-07-25T03:26:06.860Z,51.63
2018-07-25T03:29:43.249Z,10.90
2018-07-25T03:32:45.733Z,10.53
2018-07-25T03:35:48.320Z,14.00
2018-07-25T03:38:50.724Z,11.07
2018-07-25T03:41:53.265Z,10.43
2018-07-25T03:44:55.750Z,9.70
2018-07-25T03:47:58.151Z,9.57
2018-07-25T03:51:00.729Z,10.03
2018-07-25T03:54:03.250Z,8.90
2018-07-25T03:57:05.698Z,10.20
2018-07-25T04:00:08.228Z,9.93
2018-07-25T04:03:10.769Z,9.97
2018-07-25T04:06:13.200Z,10.57
2018-07-25T04:09:15.720Z,10.50
2018-07-25T04:12:18.166Z,10.07
2018-07-25T04:15:20.577Z,10.70
2018-07-25T04:18:23.266Z,9.23
2018-07-25T04:21:25.838Z,9.53
2018-07-25T04:24:28.279Z,9.43
2018-07-25T04:27:30.630Z,10.83
2018-07-25T04:30:32.933Z,10.20
2018-07-25T04:33:35.365Z,9.67
2018-07-25T04:36:37.859Z,12.97
2018-07-25T04:39:40.329Z,10.10
2018-07-25T04:42:42.632Z,14.70
2018-07-25T04:45:45.020Z,9.87
2018-07-25T04:48:47.263Z,10.53
2018-07-25T04:51:49.707Z,10.23
2018-07-25T04:54:52.164Z,16.87
2018-07-25T04:57:54.684Z,12.67
2018-07-25T05:00:57.883Z,12.13
2018-07-25T05:04:00.396Z,10.23
2018-07-25T05:07:02.879Z,11.20
2018-07-25T05:10:05.339Z,9.73
2018-07-25T05:13:07.933Z,10.33
2018-07-25T05:16:10.547Z,10.37
2018-07-25T05:19:12.969Z,9.80
2018-07-25T05:22:16.236Z,10.83
2018-07-25T05:25:18.625Z,10.23
2018-07-25T05:28:21.227Z,10.00
2018-07-25T05:31:23.666Z,10.67
2018-07-25T05:34:26.182Z,11.40
2018-07-25T05:37:28.716Z,11.40
2018-07-25T05:40:31.070Z,10.97
2018-07-25T05:43:33.593Z,11.30
2018-07-25T05:46:36.401Z,10.60
2018-07-25T05:49:38.784Z,11.27
2018-07-25T05:52:41.257Z,10.60
2018-07-25T05:55:43.753Z,10.97
2018-07-25T05:58:46.228Z,10.80
2018-07-25T06:01:48.648Z,10.37
2018-07-25T06:04:51.496Z,9.73
2018-07-25T06:07:54.250Z,9.87
2018-07-25T06:10:56.725Z,10.50
2018-07-25T06:13:59.186Z,9.43
2018-07-25T06:17:01.672Z,9.97
2018-07-25T06:20:06.277Z,10.93
2018-07-25T06:23:08.879Z,12.80
2018-07-25T06:26:11.924Z,10.07
2018-07-25T06:29:14.643Z,10.30
2018-07-25T06:32:17.241Z,10.07
2018-07-25T06:35:19.840Z,12.13
2018-07-25T06:38:22.282Z,11.33
2018-07-25T06:41:25.302Z,10.37
2018-07-25T06:44:27.883Z,11.10
2018-07-25T06:47:30.451Z,10.80
2018-07-25T06:50:32.846Z,10.97
2018-07-25T06:53:35.300Z,10.47
2018-07-25T06:56:37.693Z,10.53
2018-07-25T06:59:40.183Z,9.80
2018-07-25T07:02:42.637Z,10.50
2018-07-25T07:05:45.893Z,10.77
2018-07-25T07:08:48.886Z,10.43
2018-07-25T07:11:51.442Z,9.57
2018-07-25T07:14:54.166Z,11.70
2018-07-25T07:17:56.692Z,10.07
2018-07-25T07:20:59.255Z,10.40
2018-07-25T07:24:01.832Z,9.90
2018-07-25T07:27:04.340Z,10.27
2018-07-25T07:30:06.814Z,9.67
2018-07-25T07:33:09.350Z,10.03
2018-07-25T07:36:11.934Z,9.27
2018-07-25T07:39:14.408Z,9.27
2018-07-25T07:42:16.946Z,11.10
2018-07-25T07:45:19.637Z,9.23
2018-07-25T07:48:21.910Z,11.63
2018-07-25T07:51:24.405Z,10.33
2018-07-25T07:54:27.016Z,8.90
2018-07-25T07:57:29.408Z,9.87
2018-07-25T08:00:31.871Z,8.80
2018-07-25T08:03:34.366Z,9.30
2018-07-25T08:06:36.649Z,13.90
2018-07-25T08:09:39.104Z,7.83
2018-07-25T08:12:41.554Z,9.40
2018-07-25T08:15:44.075Z,7.23
2018-07-25T08:18:46.786Z,7.67
2018-07-25T08:21:49.122Z,6.87
2018-07-25T08:24:51.533Z,8.50
2018-07-25T08:27:54.069Z,8.67
2018-07-25T08:30:56.663Z,9.20
2018-07-25T08:33:59.177Z,7.93
2018-07-25T08:37:01.622Z,8.77
2018-07-25T08:40:05.304Z,7.00
2018-07-25T08:43:07.759Z,10.27
2018-07-25T08:46:11.085Z,8.30
2018-07-25T08:49:13.767Z,10.17
2018-07-25T08:52:16.303Z,8.97
2018-07-25T08:55:18.630Z,10.37
2018-07-25T08:58:20.892Z,8.83
2018-07-25T09:01:23.440Z,11.63
2018-07-25T09:04:25.981Z,6.47
2018-07-25T09:07:28.492Z,6.73
2018-07-25T09:10:31.015Z,7.33
2018-07-25T09:13:33.628Z,9.73
2018-07-25T09:16:36.150Z,7.30
2018-07-25T09:19:38.560Z,6.80
2018-07-25T09:22:40.939Z,7.13
2018-07-25T09:25:43.479Z,6.90
2018-07-25T09:28:45.959Z,6.90
2018-07-25T09:31:48.250Z,6.73
2018-07-25T09:34:50.810Z,9.67
2018-07-25T09:37:53.250Z,6.80
2018-07-25T09:40:55.696Z,9.30
2018-07-25T09:43:58.172Z,10.60
2018-07-25T09:47:00.659Z,11.57
2018-07-25T09:50:03.115Z,15.93
2018-07-25T09:53:05.616Z,18.50
2018-07-25T09:56:08.092Z,14.73
2018-07-25T09:59:10.530Z,13.20
2018-07-25T10:02:13.033Z,9.03
2018-07-25T10:05:15.453Z,7.53
2018-07-25T10:08:18.019Z,9.03
2018-07-25T10:11:22.166Z,10.53
2018-07-25T10:14:24.530Z,11.27
2018-07-25T10:17:26.933Z,8.90
2018-07-25T10:20:29.317Z,8.57
2018-07-25T10:23:31.861Z,6.20
2018-07-25T10:26:34.908Z,6.77
2018-07-25T10:29:37.417Z,6.30
2018-07-25T10:32:39.831Z,5.80
2018-07-25T10:35:42.400Z,6.00
2018-07-25T10:38:44.868Z,7.67
2018-07-25T10:41:47.211Z,5.60
2018-07-25T10:44:49.785Z,5.70
2018-07-25T10:47:52.275Z,5.50
2018-07-25T10:50:54.816Z,5.60
2018-07-25T10:53:57.362Z,5.60
2018-07-25T10:56:59.859Z,5.63
2018-07-25T11:00:02.695Z,5.73
2018-07-25T11:03:05.103Z,4.67
2018-07-25T11:06:07.688Z,6.80
2018-07-25T11:09:10.488Z,4.97
2018-07-25T11:12:13.012Z,5.60
2018-07-25T11:15:15.496Z,6.50
2018-07-25T11:18:17.945Z,6.67
2018-07-25T11:21:20.438Z,5.43
2018-07-25T11:24:22.801Z,4.30
2018-07-25T11:27:25.208Z,4.37
2018-07-25T11:30:27.409Z,4.03
2018-07-25T11:33:29.831Z,6.03
2018-07-25T11:36:32.333Z,5.37
2018-07-25T11:39:34.877Z,4.83
2018-07-25T11:42:37.153Z,4.57
2018-07-25T11:45:39.693Z,4.90
2018-07-25T11:48:42.083Z,6.73
2018-07-25T11:51:44.647Z,4.43
2018-07-25T11:54:47.129Z,4.63
2018-07-25T11:57:49.535Z,7.10
2018-07-25T12:00:51.939Z,4.80
2018-07-25T12:03:54.340Z,5.53
2018-07-25T12:06:56.918Z,7.00
2018-07-25T12:09:59.378Z,7.10
2018-07-25T12:13:01.859Z,7.43
2018-07-25T12:16:04.528Z,7.27
2018-07-25T12:19:07.170Z,5.97
2018-07-25T12:22:09.696Z,6.07
2018-07-25T12:25:12.274Z,4.33
2018-07-25T12:28:14.847Z,5.53
2018-07-25T12:31:17.338Z,4.57
2018-07-25T12:34:19.812Z,4.57
2018-07-25T12:37:22.390Z,4.73
2018-07-25T12:40:25.004Z,5.50
2018-07-25T12:43:27.337Z,3.97
2018-07-25T12:46:29.769Z,4.73
2018-07-25T12:49:32.241Z,3.97
2018-07-25T12:52:35.031Z,3.77
2018-07-25T12:55:37.501Z,3.93
2018-07-25T12:58:40.037Z,4.50
2018-07-25T13:01:42.632Z,3.97
2018-07-25T13:04:44.992Z,4.03
2018-07-25T13:07:47.466Z,4.67
2018-07-25T13:10:49.951Z,4.47
2018-07-25T13:13:52.325Z,4.57
2018-07-25T13:16:54.620Z,3.83
2018-07-25T13:19:57.088Z,8.57
2018-07-25T13:22:59.633Z,4.80
2018-07-25T13:26:02.057Z,4.20
2018-07-25T13:29:04.546Z,4.43
2018-07-25T13:32:07.212Z,4.30
2018-07-25T13:35:09.802Z,5.60
2018-07-25T13:38:12.243Z,4.23
2018-07-25T13:41:14.701Z,3.80
2018-07-25T13:44:17.195Z,5.33
2018-07-25T13:47:19.710Z,5.93
2018-07-25T13:50:22.161Z,3.63
2018-07-25T13:53:24.560Z,3.97
2018-07-25T13:56:27.089Z,3.23
2018-07-25T13:59:29.633Z,3.70
2018-07-25T14:02:32.088Z,3.07
2018-07-25T14:05:34.630Z,3.20
2018-07-25T14:08:37.289Z,4.17
2018-07-25T14:11:40.177Z,4.78
2018-07-25T14:16:42.847Z,3.55
2018-07-25T14:19:45.263Z,4.28
2018-07-25T14:22:47.611Z,2.60
2018-07-25T14:25:50.035Z,2.90
2018-07-25T14:28:52.504Z,3.80
2018-07-25T14:31:54.822Z,3.87
2018-07-25T14:34:57.246Z,3.70
2018-07-25T14:37:59.702Z,3.40
2018-07-25T14:41:02.078Z,3.20
2018-07-25T14:44:04.544Z,4.87
2018-07-25T14:47:08.040Z,6.20
2018-07-25T14:50:10.366Z,3.70
2018-07-25T14:53:12.724Z,4.53
2018-07-25T14:56:15.397Z,5.28
2018-07-25T14:59:17.724Z,3.62
2018-07-25T15:02:20.089Z,4.78
2018-07-25T15:05:22.530Z,3.00
2018-07-25T15:08:25.334Z,3.55
2018-07-25T15:11:27.943Z,3.17
2018-07-25T15:14:30.323Z,3.55
2018-07-25T15:17:32.832Z,3.00
2018-07-25T15:20:35.219Z,3.30
2018-07-25T15:24:00.998Z,3.12
2018-07-25T15:27:03.470Z,3.30
2018-07-25T15:30:07.652Z,3.42
2018-07-25T15:33:09.923Z,4.62
2018-07-25T15:36:48.184Z,2.90
2018-07-25T15:39:50.675Z,8.53
2018-07-25T15:42:53.212Z,5.03
2018-07-25T15:45:55.811Z,5.23
2018-07-25T15:48:58.224Z,3.43
2018-07-25T15:52:00.700Z,9.40
2018-07-25T15:55:03.133Z,4.57
2018-07-25T15:58:05.882Z,6.20
2018-07-25T16:01:08.499Z,5.70
2018-07-25T16:04:10.919Z,5.47
2018-07-25T16:07:13.420Z,3.43
2018-07-25T16:10:17.890Z,4.80
2018-07-25T16:13:20.455Z,3.57
2018-07-25T16:16:25.550Z,3.43
2018-07-25T16:19:28.334Z,5.63
2018-07-25T16:22:31.904Z,2.90
2018-07-25T16:25:34.489Z,2.90
2018-07-25T16:28:37.123Z,2.63
2018-07-25T16:31:39.713Z,3.50
2018-07-25T16:34:42.370Z,4.00
2018-07-25T16:37:44.930Z,3.10
2018-07-25T16:40:47.301Z,3.03
2018-07-25T16:43:49.776Z,5.17
2018-07-25T16:46:52.258Z,3.53
2018-07-25T16:49:54.749Z,12.90
2018-07-25T16:52:57.278Z,10.80
2018-07-25T16:56:00.000Z,18.67
2018-07-25T16:59:02.680Z,6.97
2018-07-25T17:02:06.244Z,11.37
2018-07-25T17:05:08.759Z,16.33
2018-07-25T17:08:11.359Z,24.87
2018-07-25T17:11:14.065Z,51.90
2018-07-25T17:14:16.600Z,26.93
2018-07-25T17:17:19.083Z,25.67
2018-07-25T17:20:21.572Z,17.83
2018-07-25T17:23:25.151Z,17.20
2018-07-25T17:26:27.628Z,12.43
2018-07-25T17:29:30.182Z,5.50
2018-07-25T17:32:33.780Z,3.80
2018-07-25T17:35:36.154Z,5.60
2018-07-25T17:38:38.573Z,3.87
2018-07-25T17:41:41.771Z,5.63
2018-07-25T17:44:44.405Z,3.63
2018-07-25T17:47:47.200Z,4.67
2018-07-25T17:50:49.993Z,13.13
2018-07-25T17:53:52.756Z,11.73
2018-07-25T17:56:55.502Z,5.40
2018-07-25T17:59:58.174Z,8.60
2018-07-25T18:03:01.021Z,5.03
2018-07-25T18:06:04.288Z,5.30
2018-07-25T18:09:08.196Z,4.90
2018-07-25T18:12:12.091Z,6.87
2018-07-25T18:15:15.078Z,9.17
2018-07-25T18:18:17.627Z,6.43
2018-07-25T18:21:20.498Z,5.80
2018-07-25T18:24:23.199Z,8.93
2018-07-25T18:27:26.063Z,7.03
2018-07-25T18:30:28.876Z,6.83
2018-07-25T18:33:31.540Z,8.30
2018-07-25T18:36:34.146Z,5.00
2018-07-25T18:39:36.995Z,8.27
2018-07-25T18:42:39.654Z,6.57
2018-07-25T18:45:42.471Z,10.10
2018-07-25T18:48:45.272Z,9.17
2018-07-25T18:51:48.207Z,4.10
2018-07-25T18:54:51.707Z,3.80
2018-07-25T18:57:54.114Z,5.50
2018-07-25T19:00:56.692Z,5.10
2018-07-25T19:03:59.310Z,5.83
2018-07-25T19:07:01.807Z,8.10
2018-07-25T19:10:04.594Z,4.83
2018-07-25T19:13:12.861Z,7.17
2018-07-25T19:16:15.414Z,8.97
2018-07-25T19:19:17.869Z,4.63
2018-07-25T19:22:20.461Z,8.93
2018-07-25T19:25:22.900Z,5.83
2018-07-25T19:28:25.403Z,5.10
2018-07-25T19:31:28.004Z,5.70
2018-07-25T19:34:30.508Z,5.03
2018-07-25T19:37:33.061Z,5.57
2018-07-25T19:40:35.857Z,5.37
2018-07-25T19:43:38.494Z,2.97
2018-07-25T19:46:41.440Z,5.43
2018-07-25T19:49:43.977Z,4.40
2018-07-25T19:52:47.413Z,8.37
2018-07-25T19:55:49.886Z,7.00
2018-07-25T19:58:52.339Z,3.17
2018-07-25T20:01:54.752Z,8.60
2018-07-25T20:04:57.323Z,4.80
2018-07-25T20:07:59.991Z,5.27
2018-07-25T20:11:05.604Z,3.10
2018-07-25T20:14:13.673Z,4.73
2018-07-25T20:17:16.446Z,7.30
2018-07-25T20:20:18.964Z,3.57
2018-07-25T20:23:21.479Z,2.70
2018-07-25T20:26:23.771Z,3.40
2018-07-25T20:29:26.213Z,5.37
2018-07-25T20:32:28.713Z,5.90
2018-07-25T20:35:31.133Z,3.17
2018-07-25T20:38:33.657Z,3.13
2018-07-25T20:41:36.114Z,2.37
2018-07-25T20:44:38.502Z,6.43
2018-07-25T20:47:41.183Z,3.27
2018-07-25T20:50:44.279Z,5.30
2018-07-25T20:53:47.207Z,3.07
2018-07-25T20:56:49.834Z,3.47
2018-07-25T20:59:52.302Z,3.00
2018-07-25T21:02:55.799Z,2.03
2018-07-25T21:05:58.267Z,5.77
2018-07-25T21:09:00.630Z,4.80
2018-07-25T21:12:03.085Z,2.53
2018-07-25T21:15:05.648Z,2.47
2018-07-25T21:18:07.918Z,2.97
2018-07-25T21:21:10.482Z,3.00
2018-07-25T21:24:12.713Z,3.50
2018-07-25T21:27:15.087Z,1.60
2018-07-25T21:30:17.465Z,1.80
2018-07-25T21:33:19.797Z,6.13
2018-07-25T21:36:22.177Z,3.13
2018-07-25T21:39:24.541Z,2.87
2018-07-25T21:42:27.117Z,3.70
2018-07-25T21:45:29.517Z,3.27
2018-07-25T21:48:31.873Z,1.97
2018-07-25T21:51:34.184Z,1.87
2018-07-25T21:54:36.434Z,1.93
2018-07-25T21:57:38.767Z,2.40
2018-07-25T22:00:45.591Z,3.70
2018-07-25T22:03:48.583Z,1.70
2018-07-25T22:06:51.161Z,3.00
2018-07-25T22:09:54.039Z,2.40
2018-07-25T22:12:57.229Z,2.00
2018-07-25T22:16:02.169Z,2.30
2018-07-25T22:19:04.693Z,1.77
2018-07-25T22:22:37.342Z,2.10
2018-07-25T22:25:39.933Z,1.93
2018-07-25T22:28:42.654Z,2.70
2018-07-25T22:31:45.083Z,2.37
2018-07-25T22:34:47.561Z,2.17
2018-07-25T22:37:49.948Z,4.27
2018-07-25T22:40:52.361Z,3.10
2018-07-25T22:43:54.693Z,3.97
2018-07-25T22:46:57.153Z,3.37
2018-07-25T22:49:59.589Z,1.80
2018-07-25T22:53:02.031Z,4.87
2018-07-25T22:56:04.558Z,3.40
2018-07-25T22:59:06.891Z,2.60
2018-07-25T23:02:09.270Z,4.00
2018-07-25T23:05:11.759Z,3.77
2018-07-25T23:08:14.156Z,2.70
2018-07-25T23:11:16.485Z,1.90
2018-07-25T23:14:19.104Z,3.83
2018-07-25T23:17:21.474Z,2.90
2018-07-25T23:20:23.999Z,2.67
2018-07-25T23:23:26.445Z,3.10
2018-07-25T23:26:28.835Z,3.50
2018-07-25T23:29:31.344Z,2.50
2018-07-25T23:32:33.823Z,4.17
2018-07-25T23:35:36.201Z,5.13
2018-07-25T23:38:38.441Z,2.13
2018-07-25T23:41:40.877Z,3.60
2018-07-25T23:44:43.230Z,3.07
2018-07-25T23:47:45.578Z,3.30
2018-07-25T23:50:47.913Z,1.80
2018-07-25T23:53:50.170Z,2.00
2018-07-25T23:56:52.474Z,1.87
2018-07-25T23:59:54.895Z,3.57
